Parksville, New York
Current Conditions -  °F | °C
As of 11:15 PM on Tuesday 21 Oct 2014 (Local Time) from KMSV Reporting Station
Overcast Overcast  
Wind Chill: 46°   Ceiling: 400
Heat Index: 48°   Visibility: 7mi
Dew Point: 46°   Wind: 5mph
Humidity: 93%   Direction: 60°ENE
Pressure: 29.97"   Gusts: NA
Location:  41.86°N, 74.76°W
Report Text: KMSV 220315Z AUTO 06004KT 7SM OVC004 09/08 A2997 RMK AO1
Loading
Personal Weather Stations






























Interactive Weather Map
Tropical Storm Tracking
New forecast layout! Learn more

10-Day Weather Forecast

Advertisements
Track Severe Weather on mobile